createdAt,value
2023-02-11T00:03:01.295Z,3.01
2023-02-11T00:05:27.649Z,3.13
2023-02-11T00:07:53.960Z,3.57
2023-02-11T00:10:20.255Z,3.54
2023-02-11T00:12:46.548Z,3.54
2023-02-11T00:15:12.851Z,3.53
2023-02-11T00:17:39.200Z,3.69
2023-02-11T00:20:08.082Z,3.28
2023-02-11T00:22:34.556Z,3.41
2023-02-11T00:25:00.888Z,3.39
2023-02-11T00:27:27.177Z,3.37
2023-02-11T00:29:53.470Z,3.38
2023-02-11T00:32:19.784Z,2.87
2023-02-11T00:34:46.065Z,3.16
2023-02-11T00:37:12.360Z,3.17
2023-02-11T00:39:38.692Z,2.98
2023-02-11T00:42:05.002Z,3.04
2023-02-11T00:44:31.293Z,3.35
2023-02-11T00:46:57.729Z,3.12
2023-02-11T00:49:24.022Z,3.21
2023-02-11T00:51:50.302Z,3.22
2023-02-11T00:54:16.614Z,3.02
2023-02-11T00:56:42.944Z,3.19
2023-02-11T00:59:09.286Z,3.34
2023-02-11T01:01:35.707Z,2.87
2023-02-11T01:04:10.888Z,2.57
2023-02-11T01:06:37.198Z,2.82
2023-02-11T01:09:03.497Z,2.85
2023-02-11T01:11:29.783Z,2.37
2023-02-11T01:13:56.103Z,2.82
2023-02-11T01:16:22.498Z,2.86
2023-02-11T01:18:48.818Z,3.02
2023-02-11T01:21:15.185Z,3.04
2023-02-11T01:23:41.488Z,2.96
2023-02-11T01:26:07.795Z,3.01
2023-02-11T01:28:34.196Z,2.82
2023-02-11T01:31:00.575Z,2.87
2023-02-11T01:33:26.920Z,2.44
2023-02-11T01:35:53.534Z,2.60
2023-02-11T01:38:19.898Z,2.95
2023-02-11T01:40:46.196Z,2.84
2023-02-11T01:43:12.503Z,2.74
2023-02-11T01:45:38.803Z,2.51
2023-02-11T01:48:05.084Z,2.57
2023-02-11T01:50:31.424Z,2.91
2023-02-11T01:52:57.785Z,2.98
2023-02-11T01:55:24.079Z,2.99
2023-02-11T01:57:50.403Z,3.13
2023-02-11T02:00:16.732Z,2.51
2023-02-11T02:02:43.023Z,2.33
2023-02-11T02:05:09.335Z,2.06
2023-02-11T02:07:35.637Z,2.47
2023-02-11T02:10:01.936Z,2.55
2023-02-11T02:12:28.245Z,2.60
2023-02-11T02:14:54.534Z,2.49
2023-02-11T02:17:20.831Z,2.47
2023-02-11T02:19:47.154Z,2.42
2023-02-11T02:22:13.450Z,2.40
2023-02-11T02:24:39.747Z,2.51
2023-02-11T02:27:06.102Z,2.55
2023-02-11T02:29:32.384Z,2.44
2023-02-11T02:31:58.681Z,2.48
2023-02-11T02:34:24.974Z,2.48
2023-02-11T02:36:51.271Z,2.59
2023-02-11T02:39:17.571Z,2.23
2023-02-11T02:41:43.883Z,2.20
2023-02-11T02:44:10.180Z,2.31
2023-02-11T02:46:36.539Z,2.10
2023-02-11T02:49:02.901Z,2.14
2023-02-11T02:51:29.190Z,2.28
2023-02-11T02:53:55.492Z,2.47
2023-02-11T02:56:21.786Z,2.47
2023-02-11T02:58:48.072Z,2.31
2023-02-11T03:01:14.422Z,2.57
2023-02-11T03:03:40.894Z,2.13
2023-02-11T03:06:07.247Z,2.13
2023-02-11T03:08:33.599Z,1.88
2023-02-11T03:10:59.921Z,1.97
2023-02-11T03:13:26.209Z,2.39
2023-02-11T03:15:52.829Z,2.26
2023-02-11T03:18:19.294Z,2.26
2023-02-11T03:20:45.571Z,2.29
2023-02-11T03:23:11.851Z,1.89
2023-02-11T03:25:38.161Z,2.00
2023-02-11T03:28:04.501Z,1.58
2023-02-11T03:30:30.827Z,1.73
2023-02-11T03:32:57.176Z,1.85
2023-02-11T03:35:23.468Z,2.00
2023-02-11T03:37:55.879Z,1.90
2023-02-11T03:40:22.236Z,2.04
2023-02-11T03:42:48.530Z,1.98
2023-02-11T03:45:14.824Z,2.13
2023-02-11T03:47:41.133Z,2.11
2023-02-11T03:50:07.429Z,1.93
2023-02-11T03:52:33.725Z,2.12
2023-02-11T03:55:00.051Z,2.16
2023-02-11T03:57:26.359Z,2.22
2023-02-11T03:59:52.664Z,2.07
2023-02-11T04:02:18.975Z,2.14
2023-02-11T04:04:45.273Z,1.94
2023-02-11T04:07:11.554Z,1.75
2023-02-11T04:09:37.861Z,1.59
2023-02-11T04:12:04.151Z,1.70
2023-02-11T04:14:30.448Z,1.77
2023-02-11T04:16:56.857Z,1.82
2023-02-11T04:19:23.165Z,1.79
2023-02-11T04:21:49.459Z,1.72
2023-02-11T04:24:15.860Z,1.88
2023-02-11T04:26:42.165Z,1.93
2023-02-11T04:29:08.456Z,1.52
2023-02-11T04:31:34.800Z,1.82
2023-02-11T04:34:01.113Z,1.85
2023-02-11T04:36:27.471Z,1.96
2023-02-11T04:38:53.940Z,1.83
2023-02-11T04:41:20.240Z,1.55
2023-02-11T04:43:46.549Z,1.61
2023-02-11T04:46:12.962Z,1.88
2023-02-11T04:48:39.291Z,1.82
2023-02-11T04:51:05.576Z,1.87
2023-02-11T04:53:31.883Z,1.50
2023-02-11T04:55:58.173Z,1.55
2023-02-11T04:58:24.512Z,1.75
2023-02-11T05:00:50.873Z,1.46
2023-02-11T05:03:17.181Z,1.66
2023-02-11T05:05:43.489Z,1.65
2023-02-11T05:08:09.803Z,1.65
2023-02-11T05:10:36.109Z,1.56
2023-02-11T05:13:02.421Z,1.39
2023-02-11T05:15:28.727Z,1.05
2023-02-11T05:17:55.017Z,1.32
2023-02-11T05:20:21.301Z,1.54
2023-02-11T05:22:47.605Z,1.19
2023-02-11T05:25:13.904Z,1.44
2023-02-11T05:27:40.192Z,1.59
2023-02-11T05:30:06.503Z,1.69
2023-02-11T05:32:32.843Z,1.45
2023-02-11T05:34:59.135Z,1.24
2023-02-11T05:37:25.549Z,1.45
2023-02-11T05:39:51.885Z,1.25
2023-02-11T05:42:18.185Z,1.53
2023-02-11T05:44:44.518Z,1.46
2023-02-11T05:47:10.799Z,1.48
2023-02-11T05:49:37.089Z,1.46
2023-02-11T05:52:03.403Z,1.21
2023-02-11T05:54:29.690Z,1.58
2023-02-11T05:56:55.973Z,1.33
2023-02-11T05:59:22.278Z,1.30
2023-02-11T06:01:48.570Z,1.40
2023-02-11T06:04:14.858Z,1.23
2023-02-11T06:06:41.167Z,1.15
2023-02-11T06:09:07.492Z,1.12
2023-02-11T06:11:33.792Z,1.38
2023-02-11T06:14:00.143Z,1.52
2023-02-11T06:16:26.515Z,1.57
2023-02-11T06:18:52.847Z,1.38
2023-02-11T06:21:19.143Z,1.33
2023-02-11T06:23:45.439Z,1.21
2023-02-11T06:26:11.752Z,1.57
2023-02-11T06:28:40.768Z,1.40
2023-02-11T06:31:08.331Z,1.31
2023-02-11T06:33:34.679Z,1.23
2023-02-11T06:36:01.004Z,1.38
2023-02-11T06:38:27.292Z,1.32
2023-02-11T06:40:53.596Z,1.40
2023-02-11T06:43:19.916Z,1.46
2023-02-11T06:45:46.204Z,1.31
2023-02-11T06:48:12.488Z,1.40
2023-02-11T06:50:38.825Z,1.39
2023-02-11T06:53:05.108Z,1.14
2023-02-11T06:55:31.405Z,1.32
2023-02-11T06:57:57.720Z,1.32
2023-02-11T07:00:24.018Z,1.45
2023-02-11T07:02:50.314Z,1.57
2023-02-11T07:05:16.643Z,0.90
2023-02-11T07:07:42.932Z,1.38
2023-02-11T07:10:09.209Z,1.50
2023-02-11T07:12:35.529Z,1.54
2023-02-11T07:15:01.838Z,1.63
2023-02-11T07:17:28.132Z,1.69
2023-02-11T07:19:54.446Z,1.90
2023-02-11T07:22:20.761Z,1.64
2023-02-11T07:24:47.049Z,1.66
2023-02-11T07:27:13.375Z,1.60
2023-02-11T07:29:39.662Z,1.65
2023-02-11T07:32:06.017Z,1.93
2023-02-11T07:34:32.444Z,1.96
2023-02-11T07:36:58.724Z,1.83
2023-02-11T07:39:25.022Z,1.84
2023-02-11T07:41:51.335Z,2.13
2023-02-11T07:44:17.623Z,2.07
2023-02-11T07:46:43.948Z,2.03
2023-02-11T07:49:10.306Z,2.14
2023-02-11T07:51:37.717Z,2.06
2023-02-11T07:54:04.014Z,1.72
2023-02-11T07:56:30.361Z,1.50
2023-02-11T07:58:56.649Z,1.67
2023-02-11T08:01:23.001Z,1.57
2023-02-11T08:03:49.413Z,1.48
2023-02-11T08:06:15.719Z,1.63
2023-02-11T08:08:42.151Z,1.36
2023-02-11T08:11:08.461Z,1.93
2023-02-11T08:13:34.745Z,1.57
2023-02-11T08:16:01.120Z,1.49
2023-02-11T08:18:27.470Z,1.59
2023-02-11T08:20:53.762Z,1.53
2023-02-11T08:23:20.232Z,2.27
2023-02-11T08:25:46.554Z,2.45
2023-02-11T08:28:12.918Z,2.88
2023-02-11T08:30:39.363Z,2.44
2023-02-11T08:33:07.555Z,2.63
2023-02-11T08:35:33.855Z,3.01
2023-02-11T08:38:00.153Z,3.72
2023-02-11T08:40:26.464Z,3.78
2023-02-11T08:42:52.750Z,3.72
2023-02-11T08:45:19.065Z,3.49
2023-02-11T08:47:45.361Z,3.18
2023-02-11T08:50:11.658Z,4.19
2023-02-11T08:52:37.957Z,4.13
2023-02-11T08:55:04.257Z,3.91
2023-02-11T08:57:30.550Z,3.70
2023-02-11T08:59:56.837Z,3.62
2023-02-11T09:02:23.210Z,3.78
2023-02-11T09:04:49.532Z,4.09
2023-02-11T09:07:15.837Z,4.20
2023-02-11T09:09:42.140Z,4.39
2023-02-11T09:12:08.440Z,4.87
2023-02-11T09:14:34.724Z,5.14
2023-02-11T09:17:01.068Z,4.79
2023-02-11T09:19:27.405Z,4.52
2023-02-11T09:21:53.699Z,4.53
2023-02-11T09:24:20.013Z,4.66
2023-02-11T09:26:46.308Z,4.80
2023-02-11T09:29:12.614Z,3.89
2023-02-11T09:31:39.067Z,4.40
2023-02-11T09:34:05.445Z,4.76
2023-02-11T09:36:31.718Z,5.46
2023-02-11T09:38:58.046Z,5.03
2023-02-11T09:41:24.378Z,5.27
2023-02-11T09:43:50.669Z,4.63
2023-02-11T09:46:17.068Z,4.81
2023-02-11T09:48:43.377Z,5.58
2023-02-11T09:51:09.666Z,5.45
2023-02-11T09:53:35.973Z,5.92
2023-02-11T09:56:02.306Z,6.49
2023-02-11T09:58:28.607Z,6.21
2023-02-11T10:00:54.924Z,6.44
2023-02-11T10:03:21.226Z,5.30
2023-02-11T10:05:47.534Z,6.50
2023-02-11T10:08:16.743Z,6.27
2023-02-11T10:10:43.243Z,6.15
2023-02-11T10:13:09.546Z,6.89
2023-02-11T10:15:35.907Z,6.43
2023-02-11T10:18:02.233Z,6.16
2023-02-11T10:20:28.535Z,6.26
2023-02-11T10:22:54.847Z,6.73
2023-02-11T10:25:21.150Z,7.26
2023-02-11T10:27:47.448Z,6.25
2023-02-11T10:30:13.764Z,6.29
2023-02-11T10:32:40.075Z,6.72
2023-02-11T10:35:06.359Z,7.07
2023-02-11T10:37:32.670Z,7.38
2023-02-11T10:39:58.950Z,8.18
2023-02-11T10:42:25.241Z,7.80
2023-02-11T10:44:51.549Z,8.01
2023-02-11T10:47:17.859Z,6.91
2023-02-11T10:49:44.166Z,7.63
2023-02-11T10:52:10.483Z,8.28
2023-02-11T10:54:36.769Z,7.63
2023-02-11T10:57:03.069Z,7.08
2023-02-11T10:59:29.500Z,8.54
2023-02-11T11:01:55.986Z,8.46
2023-02-11T11:04:22.300Z,8.91
2023-02-11T11:06:48.679Z,8.93
2023-02-11T11:09:14.973Z,9.06
2023-02-11T11:11:41.253Z,8.30
2023-02-11T11:14:07.580Z,9.10
2023-02-11T11:16:33.878Z,8.65
2023-02-11T11:19:00.180Z,8.65
2023-02-11T11:21:26.491Z,8.49
2023-02-11T11:23:52.779Z,9.47
2023-02-11T11:26:19.060Z,9.43
2023-02-11T11:28:45.373Z,9.24
2023-02-11T11:31:11.741Z,9.04
2023-02-11T11:33:38.104Z,9.66
2023-02-11T11:36:04.411Z,9.11
2023-02-11T11:38:30.696Z,9.03
2023-02-11T11:40:56.987Z,8.67
2023-02-11T11:43:23.519Z,9.31
2023-02-11T11:45:49.806Z,8.64
2023-02-11T11:48:16.097Z,9.63
2023-02-11T11:50:42.398Z,9.31
2023-02-11T11:53:08.699Z,9.90
2023-02-11T11:55:34.999Z,10.07
2023-02-11T11:58:01.304Z,9.39
2023-02-11T12:00:27.601Z,9.24
2023-02-11T12:02:53.975Z,9.33
2023-02-11T12:05:20.378Z,10.48
2023-02-11T12:07:46.665Z,9.34
2023-02-11T12:10:12.965Z,8.79
2023-02-11T12:12:39.284Z,9.82
2023-02-11T12:15:05.603Z,9.56
2023-02-11T12:17:31.894Z,9.98
2023-02-11T12:19:58.243Z,9.58
2023-02-11T12:22:24.531Z,9.35
2023-02-11T12:24:50.824Z,10.04
2023-02-11T12:27:17.128Z,9.45
2023-02-11T12:29:43.427Z,10.39
2023-02-11T12:32:09.766Z,10.23
2023-02-11T12:34:36.114Z,10.04
2023-02-11T12:37:02.992Z,10.42
2023-02-11T12:39:29.384Z,10.26
2023-02-11T12:41:55.729Z,10.44
2023-02-11T12:44:22.021Z,9.76
2023-02-11T12:46:48.319Z,9.75
2023-02-11T12:49:14.633Z,10.01
2023-02-11T12:51:40.936Z,9.96
2023-02-11T12:54:07.231Z,10.37
2023-02-11T12:56:33.551Z,9.80
2023-02-11T12:58:59.844Z,9.97
2023-02-11T13:01:26.226Z,10.44
2023-02-11T13:03:52.615Z,10.02
2023-02-11T13:06:18.901Z,9.37
2023-02-11T13:08:45.180Z,8.70
2023-02-11T13:11:13.925Z,8.82
2023-02-11T13:13:40.754Z,9.70
2023-02-11T13:16:07.065Z,10.13
2023-02-11T13:18:33.367Z,9.40
2023-02-11T13:20:59.698Z,8.72
2023-02-11T13:23:26.028Z,9.01
2023-02-11T13:25:52.373Z,8.39
2023-02-11T13:28:18.700Z,8.85
2023-02-11T13:30:45.151Z,9.70
2023-02-11T13:33:11.514Z,9.19
2023-02-11T13:35:37.807Z,9.83
2023-02-11T13:38:04.104Z,9.66
2023-02-11T13:40:30.407Z,8.90
2023-02-11T13:42:56.686Z,8.64
2023-02-11T13:45:22.969Z,9.38
2023-02-11T13:47:52.386Z,9.28
2023-02-11T13:50:18.967Z,8.45
2023-02-11T13:52:45.252Z,8.78
2023-02-11T13:55:11.549Z,8.84
2023-02-11T13:57:37.836Z,9.09
2023-02-11T14:00:04.124Z,9.50
2023-02-11T14:02:30.454Z,8.48
2023-02-11T14:04:56.801Z,9.14
2023-02-11T14:07:23.091Z,9.27
2023-02-11T14:09:49.406Z,9.71
2023-02-11T14:12:15.722Z,9.42
2023-02-11T14:14:42.021Z,8.41
2023-02-11T14:17:08.375Z,8.61
2023-02-11T14:19:34.685Z,8.24
2023-02-11T14:22:00.988Z,8.00
2023-02-11T14:24:27.322Z,8.02
2023-02-11T14:26:53.625Z,7.87
2023-02-11T14:29:19.922Z,8.93
2023-02-11T14:31:46.392Z,9.19
2023-02-11T14:34:12.712Z,8.28
2023-02-11T14:36:39.005Z,9.02
2023-02-11T14:39:05.296Z,8.47
2023-02-11T14:41:31.587Z,8.77
2023-02-11T14:43:57.876Z,8.89
2023-02-11T14:46:24.256Z,9.42
2023-02-11T14:48:50.602Z,9.13
2023-02-11T14:51:16.901Z,7.98
2023-02-11T14:53:43.227Z,8.37
2023-02-11T14:56:09.575Z,9.01
2023-02-11T14:58:35.869Z,8.29
2023-02-11T15:01:02.288Z,8.40
2023-02-11T15:03:28.579Z,8.34
2023-02-11T15:05:54.868Z,9.08
2023-02-11T15:08:21.181Z,8.91
2023-02-11T15:10:47.480Z,8.81
2023-02-11T15:13:13.774Z,9.12
2023-02-11T15:15:40.108Z,8.77
2023-02-11T15:18:06.420Z,9.02
2023-02-11T15:20:32.717Z,8.66
2023-02-11T15:22:59.020Z,8.94
2023-02-11T15:25:25.306Z,9.13
2023-02-11T15:27:51.589Z,9.31
2023-02-11T15:30:17.905Z,8.27
2023-02-11T15:32:44.212Z,8.65
2023-02-11T15:35:10.508Z,9.02
2023-02-11T15:37:36.844Z,9.24
2023-02-11T15:40:03.135Z,9.21
2023-02-11T15:42:30.405Z,8.95
2023-02-11T15:44:58.907Z,8.89
2023-02-11T15:47:25.208Z,8.95
2023-02-11T15:49:51.495Z,8.96
2023-02-11T15:52:17.804Z,9.41
2023-02-11T15:54:44.102Z,9.46
2023-02-11T15:57:10.404Z,9.38
2023-02-11T15:59:36.715Z,8.81
2023-02-11T16:02:03.051Z,8.39
2023-02-11T16:04:29.436Z,8.93
2023-02-11T16:06:55.764Z,8.69
2023-02-11T16:09:22.067Z,7.84
2023-02-11T16:11:48.380Z,8.14
2023-02-11T16:14:14.689Z,8.46
2023-02-11T16:16:40.982Z,8.16
2023-02-11T16:19:07.314Z,8.21
2023-02-11T16:21:33.674Z,8.41
2023-02-11T16:23:59.964Z,8.34
2023-02-11T16:26:26.256Z,8.42
2023-02-11T16:28:52.566Z,7.94
2023-02-11T16:31:19.008Z,7.94
2023-02-11T16:33:45.362Z,7.71
2023-02-11T16:36:11.666Z,7.72
2023-02-11T16:38:37.953Z,7.68
2023-02-11T16:41:04.272Z,7.78
2023-02-11T16:43:30.615Z,8.06
2023-02-11T16:45:56.963Z,8.04
2023-02-11T16:48:23.248Z,8.13
2023-02-11T16:50:52.212Z,8.17
2023-02-11T16:53:19.622Z,7.64
2023-02-11T16:55:45.921Z,8.13
2023-02-11T16:58:12.230Z,8.02
2023-02-11T17:00:38.536Z,7.40
2023-02-11T17:03:04.862Z,7.10
2023-02-11T17:05:31.197Z,7.07
2023-02-11T17:07:57.522Z,7.59
2023-02-11T17:10:23.834Z,7.99
2023-02-11T17:12:50.149Z,8.15
2023-02-11T17:15:16.450Z,8.16
2023-02-11T17:17:42.753Z,8.22
2023-02-11T17:20:09.047Z,8.32
2023-02-11T17:22:35.343Z,7.95
2023-02-11T17:25:01.634Z,7.71
2023-02-11T17:27:27.958Z,7.11
2023-02-11T17:29:54.246Z,6.67
2023-02-11T17:32:20.609Z,6.99
2023-02-11T17:34:46.932Z,7.06
2023-02-11T17:37:13.220Z,7.42
2023-02-11T17:39:39.529Z,7.28
2023-02-11T17:42:05.891Z,7.38
2023-02-11T17:44:32.186Z,6.68
2023-02-11T17:46:58.481Z,6.34
2023-02-11T17:49:24.827Z,6.46
2023-02-11T17:51:51.106Z,6.65
2023-02-11T17:54:17.410Z,6.94
2023-02-11T17:56:43.751Z,7.02
2023-02-11T17:59:10.062Z,7.14
2023-02-11T18:01:36.352Z,7.44
2023-02-11T18:04:02.666Z,7.32
2023-02-11T18:06:28.986Z,6.96
2023-02-11T18:08:57.847Z,7.14
2023-02-11T18:11:24.307Z,6.99
2023-02-11T18:13:50.611Z,6.73
2023-02-11T18:16:16.989Z,6.21
2023-02-11T18:18:43.348Z,6.62
2023-02-11T18:21:09.645Z,6.74
2023-02-11T18:23:35.944Z,6.93
2023-02-11T18:26:02.265Z,6.73
2023-02-11T18:28:28.605Z,6.58
2023-02-11T18:30:55.001Z,6.69
2023-02-11T18:33:21.393Z,6.85
2023-02-11T18:35:47.672Z,6.95
2023-02-11T18:38:13.965Z,6.69
2023-02-11T18:40:40.311Z,6.63
2023-02-11T18:43:06.721Z,6.70
2023-02-11T18:45:33.034Z,6.58
2023-02-11T18:47:59.358Z,6.57
2023-02-11T18:50:25.646Z,6.25
2023-02-11T18:52:51.932Z,6.52
2023-02-11T18:55:18.282Z,6.68
2023-02-11T18:57:44.594Z,6.56
2023-02-11T19:00:10.901Z,6.17
2023-02-11T19:02:37.244Z,6.16
2023-02-11T19:05:03.543Z,6.24
2023-02-11T19:07:29.835Z,5.69
2023-02-11T19:09:56.152Z,6.20
2023-02-11T19:12:22.453Z,6.22
2023-02-11T19:14:48.754Z,6.59
2023-02-11T19:17:15.065Z,6.48
2023-02-11T19:19:41.364Z,6.72
2023-02-11T19:22:10.421Z,6.57
2023-02-11T19:24:37.042Z,6.74
2023-02-11T19:27:03.334Z,6.45
2023-02-11T19:29:29.634Z,6.91
2023-02-11T19:31:56.090Z,6.51
2023-02-11T19:34:22.468Z,6.60
2023-02-11T19:36:48.793Z,6.20
2023-02-11T19:39:15.128Z,6.32
2023-02-11T19:41:41.481Z,6.54
2023-02-11T19:44:07.791Z,6.58
2023-02-11T19:46:34.187Z,6.41
2023-02-11T19:49:00.541Z,6.16
2023-02-11T19:51:26.848Z,5.91
2023-02-11T19:53:53.164Z,6.44
2023-02-11T19:56:20.906Z,6.62
2023-02-11T19:58:47.338Z,6.41
2023-02-11T20:01:13.761Z,5.67
2023-02-11T20:03:42.429Z,5.86
2023-02-11T20:06:08.929Z,5.59
2023-02-11T20:08:35.285Z,5.44
2023-02-11T20:11:01.577Z,6.10
2023-02-11T20:13:27.879Z,6.04
2023-02-11T20:15:54.633Z,5.47
2023-02-11T20:18:21.365Z,6.07
2023-02-11T20:20:47.665Z,6.15
2023-02-11T20:23:13.997Z,6.19
2023-02-11T20:25:40.291Z,6.15
2023-02-11T20:28:06.609Z,6.32
2023-02-11T20:30:32.935Z,6.17
2023-02-11T20:32:59.228Z,5.95
2023-02-11T20:35:25.520Z,5.86
2023-02-11T20:37:51.842Z,5.82
2023-02-11T20:40:18.180Z,5.95
2023-02-11T20:42:44.470Z,5.62
2023-02-11T20:45:10.796Z,6.06
2023-02-11T20:47:37.099Z,6.36
2023-02-11T20:50:03.408Z,6.28
2023-02-11T20:52:29.721Z,6.30
2023-02-11T20:54:56.001Z,5.95
2023-02-11T20:57:22.295Z,5.63
2023-02-11T20:59:50.921Z,6.07
2023-02-11T21:02:17.224Z,6.30
2023-02-11T21:04:43.521Z,6.16
2023-02-11T21:07:09.881Z,6.49
2023-02-11T21:09:36.177Z,6.18
2023-02-11T21:12:02.522Z,5.58
2023-02-11T21:14:28.847Z,5.53
2023-02-11T21:16:55.136Z,5.34
2023-02-11T21:19:21.490Z,5.87
2023-02-11T21:21:47.814Z,6.42
2023-02-11T21:24:14.107Z,6.26
2023-02-11T21:26:40.410Z,6.47
2023-02-11T21:29:06.707Z,6.06
2023-02-11T21:31:33.182Z,5.73
2023-02-11T21:33:59.599Z,5.31
2023-02-11T21:36:25.941Z,4.94
2023-02-11T21:38:52.225Z,5.11
2023-02-11T21:41:18.537Z,5.10
2023-02-11T21:43:44.843Z,4.96
2023-02-11T21:46:11.205Z,4.95
2023-02-11T21:48:37.548Z,5.02
2023-02-11T21:51:03.859Z,5.68
2023-02-11T21:53:30.156Z,5.53
2023-02-11T21:55:56.686Z,5.85
2023-02-11T21:58:23.086Z,5.86
2023-02-11T22:00:49.415Z,5.77
2023-02-11T22:03:15.717Z,5.90
2023-02-11T22:05:42.018Z,5.78
2023-02-11T22:08:08.306Z,5.70
2023-02-11T22:10:34.601Z,5.81
2023-02-11T22:13:00.953Z,5.56
2023-02-11T22:15:27.266Z,5.70
2023-02-11T22:17:53.558Z,5.58
2023-02-11T22:20:19.873Z,5.74
2023-02-11T22:22:46.173Z,5.34
2023-02-11T22:25:12.465Z,5.45
2023-02-11T22:27:38.969Z,5.26
2023-02-11T22:30:05.259Z,5.38
2023-02-11T22:32:31.534Z,5.06
2023-02-11T22:34:57.841Z,5.31
2023-02-11T22:37:24.142Z,5.14
2023-02-11T22:39:50.451Z,5.07
2023-02-11T22:42:16.753Z,4.88
2023-02-11T22:44:43.044Z,4.97
2023-02-11T22:47:09.326Z,5.02
2023-02-11T22:49:35.645Z,5.34
2023-02-11T22:52:01.955Z,5.06
2023-02-11T22:54:28.253Z,5.22
2023-02-11T22:56:54.572Z,5.14
2023-02-11T22:59:20.872Z,5.14
2023-02-11T23:01:47.251Z,5.04
2023-02-11T23:04:13.593Z,4.72
2023-02-11T23:06:39.889Z,4.95
2023-02-11T23:09:06.180Z,4.85
2023-02-11T23:11:32.493Z,4.90
2023-02-11T23:13:58.799Z,4.92
2023-02-11T23:16:25.151Z,4.84
2023-02-11T23:18:51.523Z,4.88
2023-02-11T23:21:17.842Z,4.63
2023-02-11T23:23:44.133Z,4.73
2023-02-11T23:26:10.450Z,4.85
2023-02-11T23:28:36.796Z,4.57
2023-02-11T23:31:03.294Z,4.64
2023-02-11T23:33:29.619Z,4.78
2023-02-11T23:35:56.232Z,4.87
2023-02-11T23:38:22.683Z,4.84
2023-02-11T23:40:49.016Z,4.72
2023-02-11T23:43:15.311Z,4.50
2023-02-11T23:45:41.641Z,4.38
2023-02-11T23:48:07.962Z,4.63
2023-02-11T23:50:34.257Z,4.81
2023-02-11T23:53:00.545Z,4.53
2023-02-11T23:55:26.860Z,4.63
2023-02-11T23:57:53.154Z,4.90
